createdAt,value
2017-12-11T00:01:03.507Z,95052.16
2017-12-11T00:03:31.741Z,95051.55
2017-12-11T00:05:59.986Z,95032.73
2017-12-11T00:08:28.226Z,95051.01
2017-12-11T00:10:56.470Z,95062.20
2017-12-11T00:13:24.718Z,95059.14
2017-12-11T00:15:52.970Z,95054.57
2017-12-11T00:18:21.979Z,95037.89
2017-12-11T00:20:50.235Z,95082.02
2017-12-11T00:23:19.245Z,95077.17
2017-12-11T00:25:47.503Z,95065.05
2017-12-11T00:28:16.514Z,95074.02
2017-12-11T00:30:44.753Z,95074.97
2017-12-11T00:33:13.011Z,95075.41
2017-12-11T00:35:41.252Z,95090.85
2017-12-11T00:38:09.497Z,95099.21
2017-12-11T00:40:38.513Z,95115.30
2017-12-11T00:43:06.766Z,95107.26
2017-12-11T00:45:35.769Z,95114.01
2017-12-11T00:48:04.025Z,95114.52
2017-12-11T00:50:33.034Z,95117.31
2017-12-11T00:53:01.294Z,95110.41
2017-12-11T00:55:30.297Z,95110.20
2017-12-11T00:57:59.323Z,95097.69
2017-12-11T01:00:27.561Z,95111.59
2017-12-11T01:02:56.585Z,95114.93
2017-12-11T01:05:24.823Z,95134.50
2017-12-11T01:07:53.838Z,95145.92
2017-12-11T01:10:22.076Z,95143.81
2017-12-11T01:12:50.334Z,95143.75
2017-12-11T01:15:18.586Z,95139.86
2017-12-11T01:17:46.838Z,95150.48
2017-12-11T01:20:15.843Z,95139.05
2017-12-11T01:22:44.098Z,95130.77
2017-12-11T01:25:13.101Z,95134.28
2017-12-11T01:27:41.359Z,95131.84
2017-12-11T01:30:10.373Z,95133.41
2017-12-11T01:32:38.615Z,95140.17
2017-12-11T01:35:06.869Z,95143.53
2017-12-11T01:37:35.122Z,95148.72
2017-12-11T01:40:03.384Z,95155.33
2017-12-11T01:42:31.630Z,95152.14
2017-12-11T01:45:00.633Z,95150.33
2017-12-11T01:47:28.878Z,95147.58
2017-12-11T01:49:57.120Z,95142.27
2017-12-11T01:52:25.362Z,95124.05
2017-12-11T01:54:54.379Z,95118.88
2017-12-11T01:57:22.623Z,95099.47
2017-12-11T01:59:51.640Z,95099.54
2017-12-11T02:02:19.886Z,95104.78
2017-12-11T02:04:48.906Z,95106.88
2017-12-11T02:07:17.145Z,95106.63
2017-12-11T02:09:46.167Z,95113.23
2017-12-11T02:12:14.409Z,95114.62
2017-12-11T02:14:42.678Z,95127.92
2017-12-11T02:17:10.930Z,95125.23
2017-12-11T02:19:39.938Z,95133.28
2017-12-11T02:22:08.190Z,95142.28
2017-12-11T02:24:36.426Z,95137.59
2017-12-11T02:27:04.682Z,95139.75
2017-12-11T02:29:32.925Z,95136.39
2017-12-11T02:32:01.191Z,95141.64
2017-12-11T02:34:29.445Z,95138.58
2017-12-11T02:36:57.690Z,95137.45
2017-12-11T02:39:26.698Z,95140.88
2017-12-11T02:41:55.726Z,95122.34
2017-12-11T02:44:23.978Z,95122.60
2017-12-11T02:46:52.222Z,95140.66
2017-12-11T02:49:21.237Z,95161.33
2017-12-11T02:51:49.499Z,95146.72
2017-12-11T02:54:18.504Z,95138.33
2017-12-11T02:56:47.525Z,95146.84
2017-12-11T02:59:15.757Z,95157.45
2017-12-11T03:01:44.780Z,95162.59
2017-12-11T03:04:13.017Z,95161.73
2017-12-11T03:06:41.277Z,95164.27
2017-12-11T03:09:09.533Z,95173.95
2017-12-11T03:11:37.771Z,95183.46
2017-12-11T03:14:06.018Z,95191.53
2017-12-11T03:16:34.398Z,95198.23
2017-12-11T03:19:02.646Z,95195.38
2017-12-11T03:21:31.661Z,95200.11
2017-12-11T03:23:59.910Z,95218.06
2017-12-11T03:26:28.158Z,95217.64
2017-12-11T03:28:56.416Z,95215.58
2017-12-11T03:31:24.659Z,95216.92
2017-12-11T03:33:52.915Z,95216.05
2017-12-11T03:36:21.166Z,95211.11
2017-12-11T03:38:49.422Z,95215.81
2017-12-11T03:41:17.672Z,95210.76
2017-12-11T03:43:45.910Z,95219.18
2017-12-11T03:46:14.160Z,95222.58
2017-12-11T03:48:42.397Z,95227.97
2017-12-11T03:51:11.417Z,95230.95
2017-12-11T03:53:39.665Z,95231.48
2017-12-11T03:56:08.685Z,95236.81
2017-12-11T03:58:36.924Z,95239.77
2017-12-11T04:01:05.173Z,95242.34
2017-12-11T04:03:33.417Z,95237.69
2017-12-11T04:06:01.674Z,95239.91
2017-12-11T04:08:30.686Z,95235.61
2017-12-11T04:10:58.944Z,95235.28
2017-12-11T04:13:27.954Z,95236.16
2017-12-11T04:15:56.217Z,95236.67
2017-12-11T04:18:25.213Z,95240.00
2017-12-11T04:20:53.479Z,95231.58
2017-12-11T04:23:22.476Z,95234.02
2017-12-11T04:25:50.730Z,95228.47
2017-12-11T04:28:18.970Z,95225.19
2017-12-11T04:30:47.223Z,95222.65
2017-12-11T04:33:15.460Z,95213.31
2017-12-11T04:35:44.483Z,95207.03
2017-12-11T04:38:12.722Z,95203.19
2017-12-11T04:40:40.975Z,95205.13
2017-12-11T04:43:09.229Z,95195.42
2017-12-11T04:45:37.462Z,95191.57
2017-12-11T04:48:06.476Z,95195.83
2017-12-11T04:50:34.731Z,95174.95
2017-12-11T04:53:03.742Z,95173.30
2017-12-11T04:55:31.989Z,95173.27
2017-12-11T04:58:01.005Z,95172.23
2017-12-11T05:00:29.246Z,95167.18
2017-12-11T05:02:57.503Z,95173.06
2017-12-11T05:05:25.750Z,95163.04
2017-12-11T05:07:54.002Z,95154.72
2017-12-11T05:10:22.246Z,95157.25
2017-12-11T05:12:50.488Z,95158.14
2017-12-11T05:15:18.734Z,95135.79
2017-12-11T05:17:46.978Z,95124.80
2017-12-11T05:20:15.230Z,95124.86
2017-12-11T05:22:43.476Z,95124.34
2017-12-11T05:25:11.714Z,95123.94
2017-12-11T05:27:40.727Z,95126.80
2017-12-11T05:30:08.983Z,95136.30
2017-12-11T05:32:37.999Z,95127.06
2017-12-11T05:35:06.250Z,95123.47
2017-12-11T05:37:35.260Z,95134.89
2017-12-11T05:40:03.513Z,95136.28
2017-12-11T05:42:32.528Z,95139.97
2017-12-11T05:45:00.781Z,95140.83
2017-12-11T05:47:29.029Z,95137.44
2017-12-11T05:49:57.278Z,95134.40
2017-12-11T05:52:25.522Z,95130.06
2017-12-11T05:54:54.541Z,95114.08
2017-12-11T05:57:22.782Z,95109.55
2017-12-11T05:59:51.808Z,95115.70
2017-12-11T06:02:20.049Z,95110.23
2017-12-11T06:04:49.066Z,95119.02
2017-12-11T06:07:17.322Z,95117.73
2017-12-11T06:09:46.325Z,95121.85
2017-12-11T06:12:14.582Z,95119.37
2017-12-11T06:14:43.601Z,95125.64
2017-12-11T06:17:11.855Z,95118.05
2017-12-11T06:19:40.865Z,95111.84
2017-12-11T06:22:09.121Z,95103.34
2017-12-11T06:24:37.373Z,95111.80
2017-12-11T06:27:05.621Z,95110.54
2017-12-11T06:29:33.870Z,95106.22
2017-12-11T06:32:02.118Z,95099.83
2017-12-11T06:34:31.137Z,95101.92
2017-12-11T06:36:59.373Z,95090.45
2017-12-11T06:39:27.622Z,95088.25
2017-12-11T06:41:55.865Z,95081.90
2017-12-11T06:44:24.122Z,95070.08
2017-12-11T06:46:53.131Z,95077.78
2017-12-11T06:49:21.382Z,95078.67
2017-12-11T06:51:49.618Z,95068.66
2017-12-11T06:54:17.875Z,95068.64
2017-12-11T06:56:46.111Z,95083.34
2017-12-11T06:59:15.132Z,95084.72
2017-12-11T07:01:43.379Z,95080.55
2017-12-11T07:04:12.394Z,95080.29
2017-12-11T07:06:40.643Z,95094.20
2017-12-11T07:09:08.895Z,95096.88
2017-12-11T07:11:37.141Z,95104.16
2017-12-11T07:14:05.397Z,95099.21
2017-12-11T07:16:33.647Z,95092.97
2017-12-11T07:19:02.670Z,95093.09
2017-12-11T07:21:30.913Z,95102.84
2017-12-11T07:23:59.946Z,95107.64
2017-12-11T07:26:28.199Z,95108.92
2017-12-11T07:28:57.206Z,95107.76
2017-12-11T07:31:25.467Z,95103.16
2017-12-11T07:33:54.483Z,95091.92
2017-12-11T07:36:22.742Z,95082.32
2017-12-11T07:38:50.994Z,95071.34
2017-12-11T07:41:20.026Z,95062.20
2017-12-11T07:43:48.282Z,95060.22
2017-12-11T07:46:17.301Z,95059.84
2017-12-11T07:48:45.542Z,95056.09
2017-12-11T07:51:14.569Z,95052.72
2017-12-11T07:53:42.823Z,95054.89
2017-12-11T07:56:11.849Z,95064.15
2017-12-11T07:58:40.097Z,95063.33
2017-12-11T08:01:09.194Z,95060.88
2017-12-11T08:03:37.446Z,95057.92
2017-12-11T08:06:06.456Z,95070.64
2017-12-11T08:08:34.715Z,95059.75
2017-12-11T08:11:03.730Z,95068.62
2017-12-11T08:13:31.993Z,95062.75
2017-12-11T08:16:01.002Z,95066.07
2017-12-11T08:18:29.285Z,95063.98
2017-12-11T08:20:57.534Z,95061.05
2017-12-11T08:23:26.554Z,95057.73
2017-12-11T08:25:54.803Z,95052.54
2017-12-11T08:28:23.827Z,95043.41
2017-12-11T08:30:52.084Z,95041.27
2017-12-11T08:33:20.369Z,95035.84
2017-12-11T08:35:48.623Z,95033.92
2017-12-11T08:38:17.646Z,95039.03
2017-12-11T08:40:45.917Z,95045.67
2017-12-11T08:43:14.153Z,95042.39
2017-12-11T08:45:42.410Z,95039.84
2017-12-11T08:48:10.666Z,95039.40
2017-12-11T08:50:38.910Z,95031.49
2017-12-11T08:53:07.167Z,95029.05
2017-12-11T08:55:36.192Z,95014.65
2017-12-11T08:58:04.443Z,95003.61
2017-12-11T09:00:33.471Z,94998.56
2017-12-11T09:03:01.714Z,94990.06
2017-12-11T09:05:30.740Z,94993.98
2017-12-11T09:07:58.986Z,94999.58
2017-12-11T09:10:27.243Z,95004.24
2017-12-11T09:12:56.260Z,95011.83
2017-12-11T09:15:24.514Z,95010.59
2017-12-11T09:17:53.537Z,95015.55
2017-12-11T09:20:21.790Z,95007.59
2017-12-11T09:22:50.815Z,95021.38
2017-12-11T09:25:19.054Z,95017.55
2017-12-11T09:27:48.083Z,95011.20
2017-12-11T09:30:16.335Z,95016.28
2017-12-11T09:32:44.589Z,95015.74
2017-12-11T09:35:13.607Z,95019.48
2017-12-11T09:37:41.870Z,95016.64
2017-12-11T09:40:10.876Z,95020.77
2017-12-11T09:42:39.150Z,95005.53
2017-12-11T09:45:07.397Z,95000.89
2017-12-11T09:47:35.660Z,94997.91
2017-12-11T09:50:03.909Z,94991.13
2017-12-11T09:52:32.171Z,94982.29
2017-12-11T09:55:00.426Z,94970.04
2017-12-11T09:57:28.708Z,94978.45
2017-12-11T09:59:56.956Z,94954.09
2017-12-11T10:02:25.214Z,94944.72
2017-12-11T10:04:53.476Z,94941.71
2017-12-11T10:07:21.721Z,94942.11
2017-12-11T10:09:49.973Z,94941.19
2017-12-11T10:12:18.230Z,94935.17
2017-12-11T10:14:46.485Z,94931.64
2017-12-11T10:17:14.740Z,94915.98
2017-12-11T10:19:42.999Z,94909.55
2017-12-11T10:22:11.249Z,94898.52
2017-12-11T10:24:40.283Z,94897.17
2017-12-11T10:27:08.531Z,94883.62
2017-12-11T10:29:36.789Z,94885.22
2017-12-11T10:32:05.806Z,94873.76
2017-12-11T10:34:34.066Z,94878.63
2017-12-11T10:37:02.318Z,94859.70
2017-12-11T10:39:30.566Z,94843.06
2017-12-11T10:41:58.814Z,94850.20
2017-12-11T10:44:27.073Z,94833.02
2017-12-11T10:46:55.324Z,94821.99
2017-12-11T10:49:24.353Z,94831.73
2017-12-11T10:51:52.615Z,94828.81
2017-12-11T10:54:20.860Z,94817.86
2017-12-11T10:56:49.126Z,94820.34
2017-12-11T10:59:17.386Z,94830.41
2017-12-11T11:01:45.648Z,94823.16
2017-12-11T11:04:13.894Z,94820.66
2017-12-11T11:06:42.149Z,94822.80
2017-12-11T11:09:11.192Z,94827.75
2017-12-11T11:11:39.422Z,94817.11
2017-12-11T11:14:08.443Z,94813.30
2017-12-11T11:16:36.698Z,94828.45
2017-12-11T11:19:04.952Z,94814.12
2017-12-11T11:21:33.217Z,94800.93
2017-12-11T11:24:01.471Z,94806.27
2017-12-11T11:26:29.717Z,94816.72
2017-12-11T11:28:57.966Z,94821.27
2017-12-11T11:31:26.998Z,94821.66
2017-12-11T11:33:55.254Z,94828.26
2017-12-11T11:36:23.512Z,94836.42
2017-12-11T11:38:52.525Z,94829.66
2017-12-11T11:41:20.771Z,94828.75
2017-12-11T11:43:49.797Z,94798.44
2017-12-11T11:46:18.085Z,94800.25
2017-12-11T11:48:46.333Z,94821.73
2017-12-11T11:51:15.353Z,94837.71
2017-12-11T11:53:43.592Z,94812.52
2017-12-11T11:56:12.619Z,94824.34
2017-12-11T11:58:40.858Z,94815.12
2017-12-11T12:01:09.879Z,94803.77
2017-12-11T12:03:38.135Z,94813.47
2017-12-11T12:06:07.175Z,94820.65
2017-12-11T12:08:35.422Z,94813.17
2017-12-11T12:11:03.671Z,94797.59
2017-12-11T12:13:32.699Z,94781.67
2017-12-11T12:16:00.943Z,94766.88
2017-12-11T12:18:29.965Z,94759.47
2017-12-11T12:20:58.216Z,94761.90
2017-12-11T12:23:27.236Z,94760.66
2017-12-11T12:25:55.488Z,94765.72
2017-12-11T12:28:24.504Z,94759.81
2017-12-11T12:30:52.750Z,94739.40
2017-12-11T12:33:21.867Z,94734.56
2017-12-11T12:35:50.111Z,94732.20
2017-12-11T12:38:18.358Z,94726.70
2017-12-11T12:40:46.614Z,94730.13
2017-12-11T12:43:14.852Z,94724.55
2017-12-11T12:45:43.878Z,94723.31
2017-12-11T12:48:12.134Z,94711.82
2017-12-11T12:50:40.370Z,94717.52
2017-12-11T12:53:10.132Z,94725.55
2017-12-11T12:55:38.380Z,94724.75
2017-12-11T12:58:07.427Z,94734.95
2017-12-11T13:00:35.652Z,94745.42
2017-12-11T13:03:03.912Z,94752.14
2017-12-11T13:05:32.943Z,94757.25
2017-12-11T13:08:01.182Z,94764.34
2017-12-11T13:10:30.197Z,94775.38
2017-12-11T13:12:58.441Z,94781.23
2017-12-11T13:15:26.686Z,94774.52
2017-12-11T13:17:54.948Z,94786.73
2017-12-11T13:20:23.199Z,94792.67
2017-12-11T13:22:51.450Z,94791.89
2017-12-11T13:25:20.463Z,94804.19
2017-12-11T13:27:48.709Z,94797.88
2017-12-11T13:30:16.954Z,94808.11
2017-12-11T13:32:45.222Z,94814.73
2017-12-11T13:35:13.471Z,94811.10
2017-12-11T13:37:41.717Z,94803.87
2017-12-11T13:40:09.974Z,94805.14
2017-12-11T13:42:38.214Z,94799.58
2017-12-11T13:45:06.473Z,94805.16
2017-12-11T13:47:34.721Z,94813.60
2017-12-11T13:50:03.754Z,94800.59
2017-12-11T13:52:31.997Z,94798.94
2017-12-11T13:55:01.024Z,94791.90
2017-12-11T13:57:29.271Z,94795.25
2017-12-11T13:59:58.294Z,94787.66
2017-12-11T14:02:26.535Z,94799.05
2017-12-11T14:04:54.789Z,94809.69
2017-12-11T14:07:23.036Z,94802.04
2017-12-11T14:09:51.295Z,94823.11
2017-12-11T14:12:19.544Z,94824.81
2017-12-11T14:14:47.801Z,94835.75
2017-12-11T14:17:16.822Z,94858.34
2017-12-11T14:19:45.070Z,94863.98
2017-12-11T14:22:14.084Z,94878.59
2017-12-11T14:24:42.326Z,94877.69
2017-12-11T14:27:10.582Z,94884.42
2017-12-11T14:29:38.835Z,94904.74
2017-12-11T14:32:07.094Z,94912.65
2017-12-11T14:34:35.342Z,94946.47
2017-12-11T14:37:03.595Z,94981.31
2017-12-11T14:39:31.842Z,94961.36
2017-12-11T14:42:00.094Z,94976.17
2017-12-11T14:44:28.342Z,94970.45
2017-12-11T14:46:57.362Z,94965.05
2017-12-11T14:49:25.613Z,94970.02
2017-12-11T14:51:54.703Z,94980.22
2017-12-11T14:54:22.947Z,94989.00
2017-12-11T14:56:51.189Z,94984.40
2017-12-11T14:59:19.441Z,94989.92
2017-12-11T15:01:48.467Z,94987.72
2017-12-11T15:04:16.726Z,94990.12
2017-12-11T15:06:45.025Z,94986.64
2017-12-11T15:09:14.011Z,94990.53
2017-12-11T15:11:42.266Z,94993.11
2017-12-11T15:14:10.530Z,94993.60
2017-12-11T15:16:39.549Z,94985.55
2017-12-11T15:19:07.803Z,94989.02
2017-12-11T15:21:36.831Z,94996.57
2017-12-11T15:24:05.083Z,95013.44
2017-12-11T15:26:33.347Z,95011.78
2017-12-11T15:29:02.419Z,94999.66
2017-12-11T15:31:30.625Z,95005.09
2017-12-11T15:33:58.883Z,95002.17
2017-12-11T15:36:27.904Z,95018.32
2017-12-11T15:38:56.148Z,95016.86
2017-12-11T15:41:25.175Z,95017.72
2017-12-11T15:43:53.425Z,95017.16
2017-12-11T15:46:21.694Z,95022.30
2017-12-11T15:48:50.724Z,95029.80
2017-12-11T15:51:18.987Z,95031.50
2017-12-11T15:53:47.230Z,95035.08
2017-12-11T15:56:15.481Z,95023.08
2017-12-11T15:58:43.730Z,95028.19
2017-12-11T16:01:11.984Z,95019.03
2017-12-11T16:03:40.234Z,95021.98
2017-12-11T16:06:08.482Z,95019.13
2017-12-11T16:08:36.730Z,95012.62
2017-12-11T16:11:04.972Z,95005.56
2017-12-11T16:13:33.996Z,95007.81
2017-12-11T16:16:02.239Z,94995.25
2017-12-11T16:18:31.253Z,95004.22
2017-12-11T16:20:59.509Z,95007.37
2017-12-11T16:23:28.538Z,95005.27
2017-12-11T16:25:56.782Z,95003.83
2017-12-11T16:28:25.814Z,95006.38
2017-12-11T16:30:54.053Z,95013.52
2017-12-11T16:33:23.080Z,95009.24
2017-12-11T16:35:51.331Z,95009.73
2017-12-11T16:38:19.585Z,95020.01
2017-12-11T16:40:48.602Z,95022.20
2017-12-11T16:43:16.851Z,95007.67
2017-12-11T16:45:45.861Z,95008.16
2017-12-11T16:48:14.878Z,95011.03
2017-12-11T16:50:43.140Z,95025.07
2017-12-11T16:53:11.387Z,95023.24
2017-12-11T16:55:40.414Z,95025.42
2017-12-11T16:58:08.672Z,95028.34
2017-12-11T17:00:37.693Z,95036.03
2017-12-11T17:03:05.961Z,95035.44
2017-12-11T17:05:34.206Z,95034.46
2017-12-11T17:08:03.243Z,95037.51
2017-12-11T17:10:31.490Z,95045.42
2017-12-11T17:12:59.747Z,95041.84
2017-12-11T17:15:28.758Z,95040.23
2017-12-11T17:17:57.020Z,95035.10
2017-12-11T17:20:26.035Z,95037.73
2017-12-11T17:22:54.303Z,95039.73
2017-12-11T17:25:22.546Z,95043.48
2017-12-11T17:27:50.794Z,95045.48
2017-12-11T17:30:19.054Z,95044.21
2017-12-11T17:32:47.307Z,95054.22
2017-12-11T17:35:15.562Z,95054.66
2017-12-11T17:37:44.586Z,95069.46
2017-12-11T17:40:12.842Z,95075.25
2017-12-11T17:42:41.090Z,95070.45
2017-12-11T17:45:09.346Z,95062.84
2017-12-11T17:47:38.357Z,95072.51
2017-12-11T17:50:06.614Z,95052.25
2017-12-11T17:52:34.866Z,95065.03
2017-12-11T17:55:03.118Z,95083.68
2017-12-11T17:57:32.123Z,95082.39
2017-12-11T18:00:00.386Z,95076.83
2017-12-11T18:02:28.638Z,95076.52
2017-12-11T18:04:56.882Z,95077.88
2017-12-11T18:07:25.142Z,95075.33
2017-12-11T18:09:53.385Z,95069.46
2017-12-11T18:12:22.394Z,95084.11
2017-12-11T18:14:50.638Z,95086.30
2017-12-11T18:17:19.654Z,95078.20
2017-12-11T18:19:47.910Z,95082.45
2017-12-11T18:22:16.919Z,95084.13
2017-12-11T18:24:45.186Z,95092.61
2017-12-11T18:27:14.203Z,95092.20
2017-12-11T18:29:42.444Z,95094.75
2017-12-11T18:32:11.458Z,95088.91
2017-12-11T18:34:39.709Z,95090.66
2017-12-11T18:37:08.720Z,95084.76
2017-12-11T18:39:36.972Z,95089.83
2017-12-11T18:42:05.222Z,95097.74
2017-12-11T18:44:34.267Z,95102.81
2017-12-11T18:47:02.518Z,95112.06
2017-12-11T18:49:31.530Z,95120.02
2017-12-11T18:51:59.790Z,95135.03
2017-12-11T18:54:28.805Z,95146.21
2017-12-11T18:56:57.049Z,95142.41
2017-12-11T18:59:25.292Z,95137.86
2017-12-11T19:01:53.552Z,95133.53
2017-12-11T19:04:21.802Z,95130.45
2017-12-11T19:06:50.058Z,95122.78
2017-12-11T19:09:19.074Z,95134.38
2017-12-11T19:11:47.325Z,95106.94
2017-12-11T19:14:16.340Z,95129.84
2017-12-11T19:16:44.591Z,95132.99
2017-12-11T19:19:12.833Z,95139.15
2017-12-11T19:21:41.086Z,95134.66
2017-12-11T19:24:09.332Z,95129.63
2017-12-11T19:26:38.359Z,95136.49
2017-12-11T19:29:06.603Z,95115.20
2017-12-11T19:31:35.610Z,95120.21
2017-12-11T19:34:03.859Z,95120.28
2017-12-11T19:36:32.881Z,95130.55
2017-12-11T19:39:01.130Z,95115.39
2017-12-11T19:41:30.144Z,95121.09
2017-12-11T19:43:58.398Z,95117.59
2017-12-11T19:46:27.410Z,95117.23
2017-12-11T19:48:55.652Z,95119.42
2017-12-11T19:51:23.899Z,95119.05
2017-12-11T19:53:52.154Z,95119.68
2017-12-11T19:56:20.403Z,95116.39
2017-12-11T19:58:49.424Z,95106.08
2017-12-11T20:01:17.665Z,95120.36
2017-12-11T20:03:46.694Z,95134.76
2017-12-11T20:06:14.943Z,95120.92
2017-12-11T20:08:43.962Z,95111.20
2017-12-11T20:11:12.263Z,95137.81
2017-12-11T20:13:41.231Z,95130.19
2017-12-11T20:16:09.478Z,95141.15
2017-12-11T20:18:38.489Z,95146.09
2017-12-11T20:21:06.737Z,95128.54
2017-12-11T20:23:35.794Z,95129.11
2017-12-11T20:26:04.025Z,95149.88
2017-12-11T20:28:32.276Z,95143.56
2017-12-11T20:31:00.522Z,95154.04
2017-12-11T20:33:28.758Z,95154.02
2017-12-11T20:35:57.006Z,95155.55
2017-12-11T20:38:26.066Z,95153.45
2017-12-11T20:40:54.301Z,95158.52
2017-12-11T20:43:22.552Z,95145.36
2017-12-11T20:45:51.563Z,95153.45
2017-12-11T20:48:19.812Z,95104.00
2017-12-11T20:50:48.837Z,95133.02
2017-12-11T20:53:17.078Z,95151.30
2017-12-11T20:55:46.103Z,95144.01
2017-12-11T20:58:14.639Z,95136.13
2017-12-11T21:00:43.386Z,95142.11
2017-12-11T21:03:11.630Z,95154.64
2017-12-11T21:05:40.650Z,95140.11
2017-12-11T21:08:08.895Z,95158.88
2017-12-11T21:10:37.997Z,95162.15
2017-12-11T21:13:06.198Z,95170.06
2017-12-11T21:15:34.444Z,95171.36
2017-12-11T21:18:03.472Z,95165.09
2017-12-11T21:20:31.714Z,95180.02
2017-12-11T21:23:00.736Z,95178.95
2017-12-11T21:25:28.983Z,95191.63
2017-12-11T21:27:58.004Z,95200.67
2017-12-11T21:30:26.251Z,95208.75
2017-12-11T21:32:55.257Z,95204.41
2017-12-11T21:35:23.567Z,95212.19
2017-12-11T21:37:51.860Z,95208.11
2017-12-11T21:40:20.128Z,95209.91
2017-12-11T21:42:48.415Z,95217.21
2017-12-11T21:45:16.699Z,95215.56
2017-12-11T21:47:44.991Z,95221.08
2017-12-11T21:50:14.054Z,95212.48
2017-12-11T21:52:42.361Z,95227.27
2017-12-11T21:55:10.685Z,95221.73
2017-12-11T21:57:38.966Z,95224.78
2017-12-11T22:00:07.250Z,95214.69
2017-12-11T22:02:35.591Z,95200.56
2017-12-11T22:05:03.955Z,95211.02
2017-12-11T22:07:33.087Z,95219.89
2017-12-11T22:10:01.416Z,95231.02
2017-12-11T22:12:29.714Z,95212.08
2017-12-11T22:14:58.774Z,95226.19
2017-12-11T22:17:27.329Z,95226.26
2017-12-11T22:19:55.822Z,95248.45
2017-12-11T22:22:24.202Z,95245.16
2017-12-11T22:24:52.592Z,95261.55
2017-12-11T22:27:20.857Z,95238.13
2017-12-11T22:29:49.106Z,95252.36
2017-12-11T22:32:17.375Z,95258.13
2017-12-11T22:34:45.617Z,95248.84
2017-12-11T22:37:14.636Z,95251.24
2017-12-11T22:39:42.887Z,95234.21
2017-12-11T22:42:11.898Z,95258.65
2017-12-11T22:44:40.150Z,95251.89
2017-12-11T22:47:09.155Z,95265.10
2017-12-11T22:49:38.172Z,95268.52
2017-12-11T22:52:06.430Z,95282.47
2017-12-11T22:54:34.668Z,95290.69
2017-12-11T22:57:02.926Z,95292.59
2017-12-11T22:59:31.920Z,95286.77
2017-12-11T23:02:00.250Z,95299.33
2017-12-11T23:04:28.452Z,95302.30
2017-12-11T23:06:56.695Z,95315.74
2017-12-11T23:09:25.717Z,95323.60
2017-12-11T23:11:53.962Z,95312.99
2017-12-11T23:14:22.978Z,95309.14
2017-12-11T23:16:51.234Z,95327.31
2017-12-11T23:19:20.247Z,95336.60
2017-12-11T23:21:48.481Z,95335.60
2017-12-11T23:24:17.502Z,95318.23
2017-12-11T23:26:45.804Z,95343.36
2017-12-11T23:29:14.775Z,95351.58
2017-12-11T23:31:43.014Z,95342.97
2017-12-11T23:34:11.265Z,95324.75
2017-12-11T23:36:40.275Z,95325.80
2017-12-11T23:39:08.525Z,95319.41
2017-12-11T23:41:36.780Z,95341.45
2017-12-11T23:44:05.030Z,95335.05
2017-12-11T23:46:34.032Z,95335.73
2017-12-11T23:49:02.286Z,95328.48
2017-12-11T23:51:31.289Z,95338.68
2017-12-11T23:54:17.994Z,95370.72
2017-12-11T23:56:46.999Z,95378.11
2017-12-11T23:59:15.257Z,95368.86
